Historyczne dane pomiarowe

Dodano dane terminowe – wersja testowa.

Dane z okresu 1951-2019

Wersja bazy: 1.34 [2019-03-16, lista zmian], aktualizacja planowana na 2019-04-15

Dane meteo z obszaru Polski uzyskane na podstawie danych udostępnionych przez Instytut Meteorologii i Gospodarki Wodnej – Państwowy Instytut Badawczy.

 

Wybierz Datę:    

       

TemperaturaWilgotnośćWiatrCiśnienieOpadyŚniegCzas trwania zjawisk
 Stacja t tx tn tng RH VA  wxwx mslp ppp RRR   cm mm wxwxwxwxwxwxwx
1959-06-13 19.6 27.1 11.6 8.7 69.3- 0.0 1.0---- 0.0------------
1959-06-14 17.4 24.0 9.6 5.9 61.5- 0.0 1.7---- 0.0------------
1959-06-15 16.7 25.8 10.6 7.7 63.5- 7.0 3.3---- 0.7------------
1959-06-16 11.7 16.4 7.6 -0.4 68.5- 4.7 3.3---- 0.0------------
1959-06-17 16.2 22.5 8.1 3.6 68.3- 4.0 0.7---- 0.0------------
1959-06-18 21.6 30.0 10.6 3.0 56.0- 0.0 1.3---- 0.0------------
1959-06-19 16.5 23.0 10.1 4.6 61.5- 3.3 1.3---- 0.0------------
1959-06-20 14.3 21.2 7.1 5.7 58.0- 0.0 0.7---- 0.0------------
1959-06-21 16.8 24.0 4.6 4.6 55.8- 0.0 1.7---- 0.0------------
1959-06-22 15.5 24.8 7.5 -2.4 59.3- 1.7 2.0---- 0.0------------
1959-06-23 15.3 22.2 6.1 -4.4 59.0- 1.7 1.7---- 0.0------------
1959-06-24 17.0 22.8 8.1 4.6 66.5- 6.7 0.7---- 0.0------------
1959-06-25 18.3 25.1 9.6 -1.9 64.0- 2.0 1.0---- 0.0------------
1959-06-26 18.4 25.8 9.4 3.6 66.0- 1.3 1.3---- 1.4------------
1959-06-27 21.2 28.2 11.1 2.1 59.0- 2.0 1.0---- 0.0------------
1959-06-28 18.2 23.5 12.4 0.6 76.5- 8.0 1.7---- 2.0------------
1959-06-29 16.9 22.5 11.1 1.1 85.8- 5.3 0.3---- 13.0------------
1959-06-30 16.1 20.7 13.6 4.5 87.0- 8.0 0.7---- 1.0------------
1959-07-01 16.6 21.0 13.1 8.2 84.0- 8.0 2.7---- 3.0------------
1959-07-02 13.8 18.2 12.1 5.2 94.8- 8.0 1.3---- 7.3------------
1959-07-03 18.0 21.0 10.1 2.1 67.3- 7.7 2.3---- 0.0------------
1959-07-04 16.6 21.2 13.6 6.7 85.5- 4.0 1.7---- 0.0------------
1959-07-05 19.2 25.2 12.6 1.1 67.8- 3.3 1.3---- 0.0------------
1959-07-06 22.4 28.1 11.6 3.6 75.5- 1.7 1.0---- 0.0------------
1959-07-07 20.4 29.1 16.1 0.6 73.0- 4.0 1.3---- 1.7------------
1959-07-08 23.3 29.1 11.1 9.2 59.8- 0.7 1.3---- 0.0------------
1959-07-09 24.7 32.1 14.6 10.3 61.5- 2.0 1.3---- 0.0------------
1959-07-10 27.9 36.2 16.6 10.8 50.3- 0.0 1.7---- 0.0------------
1959-07-11 29.2 38.0 17.6 9.2 49.5- 0.0 1.0---- 0.0------------
1959-07-12 30.0 38.2 18.1 10.3 47.8- 0.7 2.7---- 0.0------------
77.7 ms

 

Źródłem pochodzenia danych jest Instytut Meteorologii i Gospodarki Wodnej – Państwowy Instytut Badawczy. Dane Instytutu Meteorologii i Gospodarki Wodnej – Państwowego Instytutu Badawczego zostały przetworzone.

Dane źródłowe można odnaleźć na stronie https://dane.imgw.pl